Milroy, Indiana
Current Conditions -  °F | °C
As of 1:53 PM on Friday 24 Oct 2014 (Local Time) from KGEZ Reporting Station
Broken Clouds Broken Clouds  
Wind Chill: 67°   Ceiling: 3300
Heat Index: 67°   Visibility: 10mi
Dew Point: 46°   Wind: 9mph
Humidity: 47%   Direction: 280°W
Pressure: 30.07"   Gusts: NA
Location:  39.5°N, 85.47°W
Report Text: KGEZ 241753Z AUTO 28008KT 10SM BKN033 19/08 A3007 RMK AO2 SLP182 T01940078 10194 20022 58014
Loading
Personal Weather Stations






























Interactive Weather Map
Tropical Storm Tracking
New forecast layout! Learn more

10-Day Weather Forecast

Advertisements
Track Severe Weather on mobile